Time;durP1;ratioP1;P1;durP2;ratioP2;P2;SDS_P1;SDS_P2;PMS_P1;PMS_P2;Temp;Humidity;BMP_temperature;BMP_pressure;BME280_temperature;BME280_humidity;BME280_pressure;Samples;Min_cycle;Max_cycle;Signal;HPM_P1;HPM_P2
2023/10/18 00:02:18;;;;;;;3.27;2.27;;;;;;;;;;4994982;28;20351;-72
2023/10/18 00:04:44;;;;;;;3.60;2.00;;;;;;;;;;4988915;28;20221;-72
2023/10/18 00:07:15;;;;;;;2.90;2.60;;;;;;;;;;4969910;28;20225;-72
2023/10/18 00:09:48;;;;;;;3.33;2.23;;;;;;;;;;4982160;28;20283;-72
2023/10/18 00:12:18;;;;;;;5.57;2.70;;;;;;;;;;4982033;28;20299;-73
2023/10/18 00:14:50;;;;;;;2.80;2.40;;;;;;;;;;4979163;28;20762;-73
2023/10/18 00:17:16;;;;;;;3.60;2.20;;;;;;;;;;4966332;28;20224;-73
2023/10/18 00:19:44;;;;;;;2.73;2.53;;;;;;;;;;4982933;28;20221;-72
2023/10/18 00:22:13;;;;;;;3.53;2.27;;;;;;;;;;4996426;28;20335;-73
2023/10/18 00:24:41;;;;;;;4.53;2.40;;;;;;;;;;4991539;28;20309;-73
2023/10/18 00:27:09;;;;;;;2.57;2.00;;;;;;;;;;5000237;28;20789;-73
2023/10/18 00:29:37;;;;;;;2.80;2.40;;;;;;;;;;5003693;28;20227;-72
2023/10/18 00:32:04;;;;;;;2.00;1.90;;;;;;;;;;4982182;28;20222;-71
2023/10/18 00:34:30;;;;;;;2.57;2.37;;;;;;;;;;4979711;28;20223;-72
2023/10/18 00:36:58;;;;;;;4.10;3.37;;;;;;;;;;4998218;28;20216;-73
2023/10/18 00:39:32;;;;;;;3.83;3.33;;;;;;;;;;4971681;28;20300;-73
2023/10/18 00:45:09;;;;;;;4.20;2.70;;;;;;;;;;4955734;28;20236;-72
2023/10/18 00:47:35;;;;;;;3.07;2.77;;;;;;;;;;4994871;28;20220;-72
2023/10/18 00:50:02;;;;;;;3.17;2.67;;;;;;;;;;4982086;28;20217;-72
2023/10/18 00:52:33;;;;;;;3.43;2.57;;;;;;;;;;4972446;28;20233;-72
2023/10/18 00:54:58;;;;;;;4.50;2.80;;;;;;;;;;4978886;28;20271;-72
2023/10/18 00:57:34;;;;;;;2.80;2.27;;;;;;;;;;4979298;28;20221;-72
2023/10/18 01:00:06;;;;;;;2.27;2.07;;;;;;;;;;4998465;28;20225;-72
2023/10/18 01:02:35;;;;;;;3.73;2.60;;;;;;;;;;4981450;28;20237;-72
2023/10/18 01:05:09;;;;;;;2.27;2.10;;;;;;;;;;4999927;28;20233;-72
2023/10/18 01:07:41;;;;;;;2.40;2.20;;;;;;;;;;4988224;28;20245;-72
2023/10/18 01:10:09;;;;;;;2.43;2.23;;;;;;;;;;4961448;28;20217;-72
2023/10/18 01:12:38;;;;;;;2.70;2.50;;;;;;;;;;4977116;28;20229;-71
2023/10/18 01:15:07;;;;;;;2.60;2.20;;;;;;;;;;5001520;28;20240;-71
2023/10/18 01:17:37;;;;;;;3.13;2.23;;;;;;;;;;4990166;28;20231;-71
2023/10/18 01:20:13;;;;;;;2.63;2.43;;;;;;;;;;5007498;28;20248;-71
2023/10/18 01:22:42;;;;;;;2.77;2.47;;;;;;;;;;4990276;28;20328;-71
2023/10/18 01:25:13;;;;;;;4.20;2.53;;;;;;;;;;4994131;28;20220;-72
2023/10/18 01:27:45;;;;;;;3.73;2.27;;;;;;;;;;4988650;28;20222;-74
2023/10/18 01:30:16;;;;;;;2.80;2.10;;;;;;;;;;5004006;28;20221;-71
2023/10/18 01:32:44;;;;;;;2.30;2.13;;;;;;;;;;4984379;28;20776;-72
2023/10/18 01:35:13;;;;;;;1.93;1.83;;;;;;;;;;4983273;28;20658;-72
2023/10/18 01:37:43;;;;;;;2.10;1.90;;;;;;;;;;4980685;28;20209;-72
2023/10/18 01:42:56;;;;;;;2.03;1.93;;;;;;;;;;4989652;28;20282;-71
2023/10/18 01:45:37;;;;;;;3.50;2.20;;;;;;;;;;4994738;28;20228;-72
2023/10/18 01:48:09;;;;;;;2.47;1.90;;;;;;;;;;4993946;28;20774;-72
2023/10/18 01:50:38;;;;;;;3.13;2.30;;;;;;;;;;4999872;28;20597;-72
2023/10/18 01:53:04;;;;;;;2.00;1.90;;;;;;;;;;5014672;28;20224;-73
2023/10/18 01:55:33;;;;;;;2.37;1.77;;;;;;;;;;4982111;28;20688;-72
2023/10/18 01:58:00;;;;;;;2.17;2.00;;;;;;;;;;5014518;28;20221;-72
2023/10/18 02:00:37;;;;;;;2.13;1.93;;;;;;;;;;4967192;28;20699;-72
2023/10/18 02:03:08;;;;;;;2.17;1.73;;;;;;;;;;5000363;28;20231;-72
2023/10/18 02:05:43;;;;;;;1.70;1.60;;;;;;;;;;4983227;28;20221;-72
2023/10/18 02:08:11;;;;;;;1.90;1.80;;;;;;;;;;4971880;28;20227;-72
2023/10/18 02:10:40;;;;;;;2.43;1.87;;;;;;;;;;4970775;28;20233;-72
2023/10/18 02:13:10;;;;;;;2.20;2.00;;;;;;;;;;4974159;28;20709;-72
2023/10/18 02:15:39;;;;;;;3.20;2.30;;;;;;;;;;4975423;28;20283;-72
2023/10/18 02:18:07;;;;;;;2.27;2.07;;;;;;;;;;4962035;28;20307;-72
2023/10/18 02:20:42;;;;;;;2.67;2.47;;;;;;;;;;4989502;28;20216;-72
2023/10/18 02:23:12;;;;;;;11.67;9.10;;;;;;;;;;4983169;28;20643;-72
2023/10/18 02:28:09;;;;;;;4.67;3.27;;;;;;;;;;4980543;28;20217;-72
2023/10/18 02:30:37;;;;;;;4.57;3.60;;;;;;;;;;4983287;28;20217;-71
2023/10/18 02:33:04;;;;;;;6.80;5.90;;;;;;;;;;4999241;28;20321;-72
2023/10/18 02:35:40;;;;;;;3.00;2.67;;;;;;;;;;4989357;28;20236;-72
2023/10/18 02:38:12;;;;;;;2.97;2.77;;;;;;;;;;5011430;28;20591;-72
2023/10/18 02:40:43;;;;;;;2.73;2.10;;;;;;;;;;4989378;28;20225;-72
2023/10/18 02:43:11;;;;;;;2.40;2.20;;;;;;;;;;4982886;28;20225;-73
2023/10/18 02:45:48;;;;;;;2.40;2.20;;;;;;;;;;4990637;28;20217;-72
2023/10/18 02:48:22;;;;;;;2.30;2.10;;;;;;;;;;4989684;28;20594;-72
2023/10/18 02:50:54;;;;;;;2.30;1.83;;;;;;;;;;4991036;28;20225;-73
2023/10/18 02:53:20;;;;;;;2.30;2.10;;;;;;;;;;5005206;28;20740;-72
2023/10/18 02:55:55;;;;;;;2.23;2.10;;;;;;;;;;4993662;28;20225;-72
2023/10/18 02:58:33;;;;;;;2.23;2.03;;;;;;;;;;4986516;28;20231;-72
2023/10/18 03:01:09;;;;;;;2.23;2.03;;;;;;;;;;5005836;28;20217;-72
2023/10/18 03:03:39;;;;;;;2.77;2.03;;;;;;;;;;4986036;28;20225;-72
2023/10/18 03:06:12;;;;;;;3.87;2.07;;;;;;;;;;4988566;28;20259;-72
2023/10/18 03:08:42;;;;;;;2.60;1.87;;;;;;;;;;4975027;28;20213;-73
2023/10/18 03:11:11;;;;;;;2.30;2.17;;;;;;;;;;4985346;28;21109;-71
2023/10/18 03:13:39;;;;;;;2.17;2.07;;;;;;;;;;4988981;28;20222;-72
2023/10/18 03:16:05;;;;;;;1.80;1.70;;;;;;;;;;5004358;28;20245;-72
2023/10/18 03:18:34;;;;;;;2.13;1.93;;;;;;;;;;4989006;28;20601;-72
2023/10/18 03:21:05;;;;;;;2.10;1.90;;;;;;;;;;4999406;28;20217;-73
2023/10/18 03:23:44;;;;;;;2.20;2.10;;;;;;;;;;4992377;28;20223;-73
2023/10/18 03:26:12;;;;;;;2.30;2.10;;;;;;;;;;4974171;28;20235;-72
2023/10/18 03:28:46;;;;;;;2.40;2.20;;;;;;;;;;5004276;28;20220;-72
2023/10/18 03:34:09;;;;;;;2.60;2.30;;;;;;;;;;4978251;28;20224;-72
2023/10/18 03:36:48;;;;;;;4.13;2.03;;;;;;;;;;4990561;28;20729;-73
2023/10/18 03:39:19;;;;;;;2.30;2.10;;;;;;;;;;4970221;28;20223;-72
2023/10/18 03:41:58;;;;;;;2.30;2.10;;;;;;;;;;4973740;28;20233;-72
2023/10/18 03:44:27;;;;;;;2.30;2.10;;;;;;;;;;4989996;28;20883;-73
2023/10/18 03:47:03;;;;;;;2.10;2.00;;;;;;;;;;4968444;28;20440;-72
2023/10/18 03:49:36;;;;;;;3.63;2.30;;;;;;;;;;4986369;28;20221;-73
2023/10/18 03:57:19;;;;;;;14.20;2.73;;;;;;;;;;4996924;28;20224;-73
2023/10/18 04:03:35;;;;;;;4.40;2.10;;;;;;;;;;4999736;28;20235;-72
2023/10/18 04:06:05;;;;;;;2.23;2.03;;;;;;;;;;4998766;28;20269;-72
2023/10/18 04:08:32;;;;;;;3.33;2.40;;;;;;;;;;4997690;28;20228;-72
2023/10/18 04:10:59;;;;;;;3.07;2.77;;;;;;;;;;4983873;28;20221;-73
2023/10/18 04:13:31;;;;;;;2.53;2.33;;;;;;;;;;5011927;28;20343;-72
2023/10/18 04:16:09;;;;;;;2.53;2.33;;;;;;;;;;4996588;28;20225;-72
2023/10/18 04:18:35;;;;;;;4.33;2.43;;;;;;;;;;5000283;28;20221;-72
2023/10/18 04:21:12;;;;;;;3.00;2.23;;;;;;;;;;4992517;28;20244;-73
2023/10/18 04:23:38;;;;;;;2.90;2.60;;;;;;;;;;4998663;28;20228;-73
2023/10/18 04:26:10;;;;;;;2.27;2.10;;;;;;;;;;4980836;28;20283;-73
2023/10/18 04:28:39;;;;;;;3.03;2.70;;;;;;;;;;5000263;28;20226;-73
2023/10/18 04:31:08;;;;;;;2.73;2.53;;;;;;;;;;4995495;28;20621;-73
2023/10/18 04:33:41;;;;;;;2.60;2.40;;;;;;;;;;4995855;28;20233;-72
2023/10/18 04:36:12;;;;;;;3.03;2.70;;;;;;;;;;4997187;28;20263;-72
2023/10/18 04:38:46;;;;;;;3.80;3.50;;;;;;;;;;5004224;28;20221;-73
2023/10/18 04:43:53;;;;;;;3.60;3.27;;;;;;;;;;4983894;28;20235;-72
2023/10/18 04:46:28;;;;;;;3.70;3.10;;;;;;;;;;4995897;28;20279;-72
2023/10/18 04:51:27;;;;;;;3.30;3.00;;;;;;;;;;4998083;28;21219;-73
2023/10/18 04:54:00;;;;;;;3.43;3.17;;;;;;;;;;4994517;28;20244;-73
2023/10/18 04:56:37;;;;;;;3.27;2.97;;;;;;;;;;4979414;28;20224;-72
2023/10/18 04:59:10;;;;;;;3.80;3.50;;;;;;;;;;5016259;28;20303;-73
2023/10/18 05:01:56;;;;;;;4.60;3.83;;;;;;;;;;4985733;28;20239;-72
2023/10/18 05:04:29;;;;;;;4.43;4.03;;;;;;;;;;5014319;28;20566;-72
2023/10/18 05:06:58;;;;;;;4.00;3.70;;;;;;;;;;4988074;28;20395;-72
2023/10/18 05:09:42;;;;;;;4.37;4.00;;;;;;;;;;4989625;28;20297;-73
2023/10/18 05:14:43;;;;;;;3.67;3.37;;;;;;;;;;5004130;28;20674;-72
2023/10/18 05:17:21;;;;;;;5.07;3.90;;;;;;;;;;4995758;28;20625;-72
2023/10/18 05:19:50;;;;;;;3.97;3.67;;;;;;;;;;5001516;28;20229;-73
2023/10/18 05:22:21;;;;;;;4.13;3.80;;;;;;;;;;5017883;28;20255;-72
2023/10/18 05:24:55;;;;;;;5.20;4.70;;;;;;;;;;5008944;28;20702;-72
2023/10/18 05:27:27;;;;;;;4.67;4.27;;;;;;;;;;5012311;28;20276;-72
2023/10/18 05:29:57;;;;;;;4.80;4.40;;;;;;;;;;4986151;28;20233;-72
2023/10/18 05:37:50;;;;;;;3.80;3.50;;;;;;;;;;4993721;28;20225;-72
2023/10/18 05:43:05;;;;;;;7.33;6.67;;;;;;;;;;5000232;28;20222;-73
2023/10/18 05:45:31;;;;;;;6.90;6.40;;;;;;;;;;5007968;28;20274;-72
2023/10/18 05:48:17;;;;;;;6.43;4.90;;;;;;;;;;5001217;28;20224;-72
2023/10/18 05:50:49;;;;;;;5.53;4.43;;;;;;;;;;4998254;28;20221;-72
2023/10/18 05:53:18;;;;;;;4.20;3.87;;;;;;;;;;5000536;28;20290;-72
2023/10/18 05:55:55;;;;;;;4.70;4.13;;;;;;;;;;5002187;28;20221;-73
2023/10/18 05:58:32;;;;;;;4.43;4.03;;;;;;;;;;4998039;28;20224;-71
2023/10/18 06:01:02;;;;;;;3.77;3.43;;;;;;;;;;4996044;28;20609;-72
2023/10/18 06:03:39;;;;;;;3.77;3.47;;;;;;;;;;4995523;28;20221;-72
2023/10/18 06:06:06;;;;;;;3.70;3.40;;;;;;;;;;4997669;28;20739;-72
2023/10/18 06:08:34;;;;;;;3.37;3.17;;;;;;;;;;4993685;28;20319;-71
2023/10/18 06:11:06;;;;;;;5.90;4.13;;;;;;;;;;5002352;28;20328;-72
2023/10/18 06:13:36;;;;;;;4.30;4.00;;;;;;;;;;4998830;28;20229;-71
2023/10/18 06:16:20;;;;;;;4.80;4.40;;;;;;;;;;4995318;28;20760;-72
2023/10/18 06:18:46;;;;;;;5.80;5.10;;;;;;;;;;4995321;28;20221;-72
2023/10/18 06:21:18;;;;;;;4.80;4.40;;;;;;;;;;5005887;28;20205;-72
2023/10/18 06:23:54;;;;;;;5.37;4.87;;;;;;;;;;4995465;28;20219;-71
2023/10/18 06:26:28;;;;;;;5.93;5.33;;;;;;;;;;4998580;28;20641;-72
2023/10/18 06:29:08;;;;;;;6.20;4.87;;;;;;;;;;5004477;28;20283;-72
2023/10/18 06:31:40;;;;;;;5.83;5.27;;;;;;;;;;5010783;28;20220;-72
2023/10/18 06:34:10;;;;;;;6.57;5.97;;;;;;;;;;4995204;28;20225;-71
2023/10/18 06:36:43;;;;;;;8.60;5.90;;;;;;;;;;4987028;28;20585;-72
2023/10/18 06:39:16;;;;;;;6.67;6.07;;;;;;;;;;5000790;28;20308;-72
2023/10/18 06:41:47;;;;;;;6.53;5.97;;;;;;;;;;4986563;28;20605;-72
2023/10/18 06:44:13;;;;;;;7.20;6.50;;;;;;;;;;4984556;28;20224;-72
2023/10/18 06:46:44;;;;;;;7.00;6.20;;;;;;;;;;5002091;28;20237;-72
2023/10/18 06:49:11;;;;;;;6.40;5.90;;;;;;;;;;4998605;28;20217;-72
2023/10/18 06:51:43;;;;;;;9.13;7.23;;;;;;;;;;4997395;28;20220;-71
2023/10/18 06:54:14;;;;;;;7.57;6.73;;;;;;;;;;4996502;28;20293;-72
2023/10/18 06:56:45;;;;;;;7.57;6.97;;;;;;;;;;4997590;28;20237;-72
2023/10/18 06:59:11;;;;;;;8.47;7.47;;;;;;;;;;5008923;28;20224;-72
2023/10/18 07:01:42;;;;;;;8.73;6.53;;;;;;;;;;4999105;28;20300;-72
2023/10/18 07:04:26;;;;;;;8.33;7.27;;;;;;;;;;4977217;28;20706;-72
2023/10/18 07:06:52;;;;;;;8.53;7.10;;;;;;;;;;5005861;28;20395;-72
2023/10/18 07:09:31;;;;;;;8.20;7.50;;;;;;;;;;4985922;28;20229;-73
2023/10/18 07:12:10;;;;;;;8.17;7.37;;;;;;;;;;4982816;28;20253;-72
2023/10/18 07:14:41;;;;;;;7.73;6.93;;;;;;;;;;4994994;28;20725;-72
2023/10/18 07:17:14;;;;;;;8.30;7.27;;;;;;;;;;4971683;28;20217;-72
2023/10/18 07:19:55;;;;;;;8.17;7.47;;;;;;;;;;4991209;28;20233;-72
2023/10/18 07:22:44;;;;;;;8.63;7.83;;;;;;;;;;4998005;28;20810;-73
2023/10/18 07:25:27;;;;;;;7.57;6.93;;;;;;;;;;4997778;28;20221;-73
2023/10/18 07:27:55;;;;;;;9.47;8.43;;;;;;;;;;4999310;28;20812;-72
2023/10/18 07:30:29;;;;;;;8.33;7.53;;;;;;;;;;4968092;28;20304;-73
2023/10/18 07:32:57;;;;;;;8.47;7.67;;;;;;;;;;5007910;28;20243;-73
2023/10/18 07:35:30;;;;;;;9.13;8.23;;;;;;;;;;4996966;28;20226;-72
2023/10/18 07:37:58;;;;;;;8.67;7.97;;;;;;;;;;4994744;28;20298;-72
2023/10/18 07:40:33;;;;;;;9.57;8.67;;;;;;;;;;5005696;28;20279;-73
2023/10/18 07:42:59;;;;;;;9.83;8.87;;;;;;;;;;5009416;28;20219;-73
2023/10/18 07:45:30;;;;;;;8.47;7.77;;;;;;;;;;4982434;28;20232;-73
2023/10/18 07:47:58;;;;;;;10.07;9.13;;;;;;;;;;5000078;28;20572;-73
2023/10/18 07:53:05;;;;;;;11.00;10.10;;;;;;;;;;4971635;28;20224;-74
2023/10/18 07:55:36;;;;;;;10.90;9.90;;;;;;;;;;4999019;28;20228;-73
2023/10/18 07:58:17;;;;;;;10.03;9.23;;;;;;;;;;4994654;28;20232;-72
2023/10/18 08:03:31;;;;;;;12.60;9.40;;;;;;;;;;4999508;28;20220;-72
2023/10/18 08:06:26;;;;;;;10.37;9.43;;;;;;;;;;4979547;28;20221;-73
2023/10/18 08:08:56;;;;;;;10.27;9.27;;;;;;;;;;4982170;28;20226;-72
2023/10/18 08:11:26;;;;;;;9.63;8.73;;;;;;;;;;4997975;28;20217;-72
2023/10/18 08:13:59;;;;;;;10.90;9.90;;;;;;;;;;4983791;28;20351;-72
2023/10/18 08:16:42;;;;;;;12.00;10.13;;;;;;;;;;4997312;28;20229;-73
2023/10/18 08:19:13;;;;;;;9.10;8.30;;;;;;;;;;4998724;28;20213;-72
2023/10/18 08:21:57;;;;;;;9.23;8.43;;;;;;;;;;4998629;28;20225;-72
2023/10/18 08:24:26;;;;;;;8.70;7.90;;;;;;;;;;4998602;28;20236;-72
2023/10/18 08:27:00;;;;;;;8.63;7.73;;;;;;;;;;4976416;28;20699;-72
2023/10/18 08:29:34;;;;;;;7.77;7.17;;;;;;;;;;4998967;28;20210;-73
2023/10/18 08:32:04;;;;;;;8.50;7.77;;;;;;;;;;5001148;28;20223;-72
2023/10/18 08:34:31;;;;;;;8.63;7.83;;;;;;;;;;4981095;28;20654;-72
2023/10/18 08:37:02;;;;;;;8.60;7.80;;;;;;;;;;5009392;28;20716;-72
2023/10/18 08:39:30;;;;;;;8.10;7.40;;;;;;;;;;4997581;28;20232;-72
2023/10/18 08:42:12;;;;;;;7.63;7.00;;;;;;;;;;4995725;28;20218;-73
2023/10/18 08:44:41;;;;;;;7.77;7.07;;;;;;;;;;4988528;28;20271;-72
2023/10/18 08:49:44;;;;;;;6.90;6.30;;;;;;;;;;5004747;28;20272;-72
2023/10/18 08:52:10;;;;;;;6.50;6.00;;;;;;;;;;4983524;28;20232;-72
2023/10/18 08:54:39;;;;;;;6.57;5.83;;;;;;;;;;5002064;28;20240;-72
2023/10/18 08:57:11;;;;;;;9.90;6.27;;;;;;;;;;4979259;28;20305;-73
2023/10/18 08:59:43;;;;;;;6.43;5.83;;;;;;;;;;4973472;28;20278;-72
2023/10/18 09:02:17;;;;;;;5.87;5.37;;;;;;;;;;4973870;28;20276;-73
2023/10/18 09:04:55;;;;;;;5.57;5.10;;;;;;;;;;4996126;28;20229;-72
2023/10/18 09:07:42;;;;;;;5.80;5.30;;;;;;;;;;4997946;28;20765;-72
2023/10/18 09:10:13;;;;;;;6.03;5.43;;;;;;;;;;4982945;28;20243;-74
2023/10/18 09:15:35;;;;;;;4.87;4.47;;;;;;;;;;4995342;28;20251;-73
2023/10/18 09:18:03;;;;;;;6.03;5.43;;;;;;;;;;4979488;28;20217;-73
2023/10/18 09:20:31;;;;;;;4.50;4.10;;;;;;;;;;4983789;28;20228;-73
2023/10/18 09:23:14;;;;;;;5.13;4.60;;;;;;;;;;5012249;28;20600;-72
2023/10/18 09:25:50;;;;;;;5.00;4.60;;;;;;;;;;4994824;28;20225;-73
2023/10/18 09:28:25;;;;;;;4.33;3.90;;;;;;;;;;5003441;28;20221;-72
2023/10/18 09:31:00;;;;;;;4.37;4.07;;;;;;;;;;4997293;28;20225;-72
2023/10/18 09:33:32;;;;;;;4.17;3.77;;;;;;;;;;4996472;28;20229;-72
2023/10/18 09:36:09;;;;;;;4.03;3.70;;;;;;;;;;4976155;28;20799;-72
2023/10/18 09:38:41;;;;;;;4.17;3.80;;;;;;;;;;5001114;28;20227;-72
2023/10/18 09:41:09;;;;;;;3.70;3.40;;;;;;;;;;4986369;28;20216;-72
2023/10/18 09:43:37;;;;;;;3.77;3.47;;;;;;;;;;4992491;28;20221;-73
2023/10/18 09:46:06;;;;;;;6.87;4.00;;;;;;;;;;5008114;28;20217;-73
2023/10/18 09:48:38;;;;;;;4.17;3.73;;;;;;;;;;4972349;28;20221;-72
2023/10/18 09:51:10;;;;;;;4.43;3.67;;;;;;;;;;5002229;28;20307;-72
2023/10/18 09:53:49;;;;;;;4.40;4.00;;;;;;;;;;5000837;28;20717;-72
2023/10/18 09:56:24;;;;;;;7.27;3.77;;;;;;;;;;5000438;28;20263;-73
2023/10/18 09:59:05;;;;;;;4.07;3.77;;;;;;;;;;4994282;28;20320;-72
2023/10/18 10:01:54;;;;;;;4.77;4.30;;;;;;;;;;4988027;28;20217;-73
2023/10/18 10:04:18;;;;;;;4.67;4.23;;;;;;;;;;4986272;28;20237;-72
2023/10/18 10:06:53;;;;;;;6.57;4.23;;;;;;;;;;4992130;28;20232;-72
2023/10/18 10:09:38;;;;;;;3.80;3.50;;;;;;;;;;4997175;28;20223;-72
2023/10/18 10:12:11;;;;;;;4.10;3.40;;;;;;;;;;4996310;28;20221;-72
2023/10/18 10:14:38;;;;;;;3.50;3.30;;;;;;;;;;4985792;28;20205;-72
2023/10/18 10:17:20;;;;;;;3.87;3.40;;;;;;;;;;4983326;28;20760;-73
2023/10/18 10:19:52;;;;;;;3.47;3.17;;;;;;;;;;4996204;28;20233;-71
2023/10/18 10:22:23;;;;;;;3.17;2.90;;;;;;;;;;4973576;28;20217;-72
2023/10/18 10:24:59;;;;;;;3.30;2.93;;;;;;;;;;4993144;28;20225;-71
2023/10/18 10:32:52;;;;;;;3.10;2.80;;;;;;;;;;5001311;28;20245;-72
2023/10/18 10:35:25;;;;;;;2.87;2.50;;;;;;;;;;4997945;28;20225;-72
2023/10/18 10:37:50;;;;;;;2.83;2.63;;;;;;;;;;4992398;28;20683;-72
2023/10/18 10:43:01;;;;;;;5.50;2.87;;;;;;;;;;5005912;28;20327;-72
2023/10/18 10:45:35;;;;;;;3.43;3.13;;;;;;;;;;5006929;28;20221;-72
2023/10/18 10:51:16;;;;;;;2.73;2.53;;;;;;;;;;5004037;28;20232;-73
2023/10/18 10:54:01;;;;;;;3.23;2.93;;;;;;;;;;4989476;28;20228;-72
2023/10/18 10:56:32;;;;;;;3.13;2.87;;;;;;;;;;5004093;28;20225;-72
2023/10/18 11:04:46;;;;;;;2.33;2.13;;;;;;;;;;4999116;28;20694;-71
2023/10/18 11:07:18;;;;;;;2.63;2.43;;;;;;;;;;5000177;28;20216;-72
2023/10/18 11:09:47;;;;;;;2.80;2.57;;;;;;;;;;4991557;28;20602;-72
2023/10/18 11:12:17;;;;;;;2.80;2.60;;;;;;;;;;4967622;28;20291;-72
2023/10/18 11:14:55;;;;;;;2.50;2.30;;;;;;;;;;4997196;28;20221;-72
2023/10/18 11:17:23;;;;;;;2.93;2.70;;;;;;;;;;4999004;28;20565;-72
2023/10/18 11:19:53;;;;;;;2.80;2.60;;;;;;;;;;4997870;28;20256;-73
2023/10/18 11:22:24;;;;;;;2.57;2.37;;;;;;;;;;4994254;28;20381;-72
2023/10/18 11:24:51;;;;;;;3.93;2.63;;;;;;;;;;5007252;28;20252;-72
2023/10/18 11:27:33;;;;;;;2.60;2.40;;;;;;;;;;4967267;28;20237;-72
2023/10/18 11:30:22;;;;;;;2.60;2.40;;;;;;;;;;4992424;28;20233;-72
2023/10/18 11:32:54;;;;;;;2.43;2.23;;;;;;;;;;4999867;28;20291;-72
2023/10/18 11:38:19;;;;;;;2.17;1.90;;;;;;;;;;5001402;28;20219;-72
2023/10/18 11:40:51;;;;;;;2.40;2.20;;;;;;;;;;4981363;28;20772;-72
2023/10/18 11:43:25;;;;;;;2.10;1.90;;;;;;;;;;5005601;28;20221;-72
2023/10/18 11:46:05;;;;;;;2.17;2.07;;;;;;;;;;4993000;28;20284;-72
2023/10/18 11:48:33;;;;;;;2.50;2.20;;;;;;;;;;4997963;28;20281;-72
2023/10/18 11:51:02;;;;;;;2.37;2.17;;;;;;;;;;5001230;28;20221;-73
2023/10/18 11:53:27;;;;;;;2.40;2.13;;;;;;;;;;4998157;28;20244;-72
2023/10/18 11:56:13;;;;;;;3.57;2.30;;;;;;;;;;4999485;28;20281;-72
2023/10/18 11:58:42;;;;;;;4.27;2.33;;;;;;;;;;4998478;28;20720;-73
2023/10/18 12:01:19;;;;;;;2.00;1.83;;;;;;;;;;4964385;28;20220;-73
2023/10/18 12:03:48;;;;;;;2.40;1.90;;;;;;;;;;4983968;28;20228;-72
2023/10/18 12:06:20;;;;;;;2.10;1.90;;;;;;;;;;5003698;28;20225;-72
2023/10/18 12:09:51;;;;;;;3.47;2.27;;;;;;;;;;4997842;28;20231;-72
2023/10/18 12:11:41;;;;;;;2.27;2.07;;;;;;;;;;4988086;28;20229;-73
2023/10/18 12:14:11;;;;;;;2.10;2.00;;;;;;;;;;4997566;28;20608;-72
2023/10/18 12:16:36;;;;;;;2.20;1.90;;;;;;;;;;4999060;28;20363;-73
2023/10/18 12:19:06;;;;;;;2.97;2.40;;;;;;;;;;4985022;28;20237;-72
2023/10/18 12:21:37;;;;;;;2.40;2.20;;;;;;;;;;4996455;28;20217;-72
2023/10/18 12:24:07;;;;;;;3.77;2.03;;;;;;;;;;4999360;28;20702;-72
2023/10/18 12:26:34;;;;;;;2.07;1.90;;;;;;;;;;4975981;28;20604;-73
2023/10/18 12:29:04;;;;;;;2.30;2.10;;;;;;;;;;4999162;28;20320;-73
2023/10/18 12:31:29;;;;;;;4.60;2.30;;;;;;;;;;4998214;28;20702;-73
2023/10/18 12:33:58;;;;;;;2.60;2.40;;;;;;;;;;4996481;28;20248;-72
2023/10/18 12:36:32;;;;;;;8.03;2.37;;;;;;;;;;4998170;28;20231;-72
2023/10/18 12:38:59;;;;;;;3.10;2.80;;;;;;;;;;4999469;28;20683;-72
2023/10/18 12:41:39;;;;;;;3.77;2.50;;;;;;;;;;4963663;28;20237;-72
2023/10/18 12:44:11;;;;;;;2.50;2.30;;;;;;;;;;4998560;28;20360;-73
2023/10/18 12:46:41;;;;;;;2.60;2.40;;;;;;;;;;5004438;28;20253;-74
2023/10/18 12:49:11;;;;;;;2.87;2.67;;;;;;;;;;4997732;28;20218;-73
2023/10/18 12:51:57;;;;;;;3.13;2.60;;;;;;;;;;4990924;28;20225;-73
2023/10/18 12:54:29;;;;;;;2.47;2.27;;;;;;;;;;4981618;28;20232;-73
2023/10/18 12:57:15;;;;;;;2.60;2.40;;;;;;;;;;4993110;28;20235;-73
2023/10/18 13:00:00;;;;;;;2.10;2.00;;;;;;;;;;4984572;28;20213;-73
2023/10/18 13:02:48;;;;;;;2.67;2.30;;;;;;;;;;4995111;28;20784;-73
2023/10/18 13:05:15;;;;;;;3.03;2.23;;;;;;;;;;4995326;28;20287;-73
2023/10/18 13:07:43;;;;;;;2.90;2.60;;;;;;;;;;5000053;28;20248;-73
2023/10/18 13:10:13;;;;;;;2.57;2.37;;;;;;;;;;4986151;28;20585;-74
2023/10/18 13:12:53;;;;;;;2.63;2.23;;;;;;;;;;4997674;28;20229;-72
2023/10/18 13:15:23;;;;;;;2.30;2.10;;;;;;;;;;4973000;28;20241;-73
2023/10/18 13:17:51;;;;;;;3.73;2.97;;;;;;;;;;4984699;28;20221;-72
2023/10/18 13:20:36;;;;;;;2.90;2.60;;;;;;;;;;4990005;28;20214;-73
2023/10/18 13:23:01;;;;;;;2.60;2.40;;;;;;;;;;5001272;28;20734;-73
2023/10/18 13:25:37;;;;;;;2.73;2.53;;;;;;;;;;5001855;28;20728;-73
2023/10/18 13:28:05;;;;;;;2.83;2.57;;;;;;;;;;4998893;28;20227;-73
2023/10/18 13:33:11;;;;;;;3.00;2.80;;;;;;;;;;4994346;28;20252;-72
2023/10/18 13:35:39;;;;;;;2.83;2.63;;;;;;;;;;5002951;28;20380;-71
2023/10/18 13:38:05;;;;;;;3.33;3.03;;;;;;;;;;4985609;28;20224;-72
2023/10/18 13:40:36;;;;;;;6.97;2.90;;;;;;;;;;4984184;28;20234;-71
2023/10/18 13:43:08;;;;;;;3.10;2.87;;;;;;;;;;4998498;28;20224;-72
2023/10/18 13:45:33;;;;;;;3.37;3.03;;;;;;;;;;5006918;28;20241;-72
2023/10/18 13:48:02;;;;;;;4.03;2.83;;;;;;;;;;4998963;28;20586;-73
2023/10/18 13:50:39;;;;;;;4.00;3.10;;;;;;;;;;5006398;28;20217;-74
2023/10/18 13:53:07;;;;;;;6.93;3.23;;;;;;;;;;5001134;28;20495;-74
2023/10/18 13:55:34;;;;;;;3.23;2.93;;;;;;;;;;4976857;28;20781;-74
2023/10/18 13:58:06;;;;;;;3.57;3.27;;;;;;;;;;4985943;28;20224;-73
2023/10/18 14:00:34;;;;;;;3.93;3.27;;;;;;;;;;4999032;28;20225;-73
2023/10/18 14:03:01;;;;;;;3.50;3.20;;;;;;;;;;4986135;28;20209;-73
2023/10/18 14:05:26;;;;;;;5.00;3.13;;;;;;;;;;4975668;28;20236;-73
2023/10/18 14:08:03;;;;;;;7.40;3.87;;;;;;;;;;4995053;28;20221;-72
2023/10/18 14:10:35;;;;;;;3.53;3.23;;;;;;;;;;4983442;28;20224;-73
2023/10/18 14:13:03;;;;;;;3.90;3.60;;;;;;;;;;4982369;28;20240;-72
2023/10/18 14:15:31;;;;;;;3.50;3.30;;;;;;;;;;4998581;28;20225;-73
2023/10/18 14:18:00;;;;;;;3.67;3.30;;;;;;;;;;5000919;28;21312;-74
2023/10/18 14:20:36;;;;;;;5.17;3.97;;;;;;;;;;4999635;28;20296;-73
2023/10/18 14:23:07;;;;;;;5.20;4.07;;;;;;;;;;4993978;28;20371;-73
2023/10/18 14:25:37;;;;;;;5.00;4.00;;;;;;;;;;4990765;28;20231;-73
2023/10/18 14:28:05;;;;;;;4.40;4.00;;;;;;;;;;4971881;28;20236;-73
2023/10/18 14:30:34;;;;;;;4.10;3.80;;;;;;;;;;4988293;28;20221;-73
2023/10/18 14:33:04;;;;;;;4.03;3.73;;;;;;;;;;5000428;28;20221;-72
2023/10/18 14:35:35;;;;;;;4.40;3.87;;;;;;;;;;4998536;28;20266;-73
2023/10/18 14:38:06;;;;;;;5.37;4.00;;;;;;;;;;5012168;28;20276;-71
2023/10/18 14:40:37;;;;;;;4.40;3.83;;;;;;;;;;4991448;28;20243;-73
2023/10/18 14:43:05;;;;;;;4.10;3.80;;;;;;;;;;5001850;28;20268;-73
2023/10/18 14:45:40;;;;;;;4.30;4.00;;;;;;;;;;4986482;28;20217;-72
2023/10/18 14:48:06;;;;;;;4.07;3.67;;;;;;;;;;4996836;28;20225;-73
2023/10/18 14:50:36;;;;;;;13.77;5.10;;;;;;;;;;4970584;28;20589;-73
2023/10/18 14:53:02;;;;;;;4.70;4.27;;;;;;;;;;4998638;28;20733;-73
2023/10/18 14:55:34;;;;;;;4.90;4.50;;;;;;;;;;4989920;28;20221;-72
2023/10/18 14:57:59;;;;;;;6.80;4.67;;;;;;;;;;5007835;28;20593;-73
2023/10/18 15:00:27;;;;;;;4.70;4.30;;;;;;;;;;4991118;28;20217;-73
2023/10/18 15:02:53;;;;;;;6.63;4.80;;;;;;;;;;4994431;28;20217;-73
2023/10/18 15:05:21;;;;;;;5.87;4.77;;;;;;;;;;4973113;28;20598;-73
2023/10/18 15:07:49;;;;;;;4.50;4.17;;;;;;;;;;4993744;28;20296;-72
2023/10/18 15:10:15;;;;;;;5.27;4.77;;;;;;;;;;4996753;28;20229;-73
2023/10/18 15:12:41;;;;;;;4.60;4.30;;;;;;;;;;5006923;28;20256;-72
2023/10/18 15:15:10;;;;;;;5.33;4.83;;;;;;;;;;5010062;28;20221;-73
2023/10/18 15:17:38;;;;;;;4.93;4.53;;;;;;;;;;5008404;28;20756;-72
2023/10/18 15:20:05;;;;;;;4.60;4.30;;;;;;;;;;5013601;28;20231;-72
2023/10/18 15:22:33;;;;;;;6.97;4.93;;;;;;;;;;4994858;28;20221;-73
2023/10/18 15:25:04;;;;;;;5.57;5.07;;;;;;;;;;5012008;28;20778;-72
2023/10/18 15:27:35;;;;;;;5.17;4.73;;;;;;;;;;4981949;28;20225;-72
2023/10/18 15:30:07;;;;;;;5.30;4.80;;;;;;;;;;5001698;28;20224;-72
2023/10/18 15:32:34;;;;;;;5.33;4.83;;;;;;;;;;4986314;28;20698;-72
2023/10/18 15:35:05;;;;;;;4.67;4.23;;;;;;;;;;4984832;28;20244;-72
2023/10/18 15:37:33;;;;;;;5.57;4.90;;;;;;;;;;4996838;28;20757;-73
2023/10/18 15:40:00;;;;;;;5.73;4.33;;;;;;;;;;5009201;28;20226;-72
2023/10/18 15:42:26;;;;;;;7.90;4.80;;;;;;;;;;5013576;28;20619;-72
2023/10/18 15:44:57;;;;;;;4.50;4.10;;;;;;;;;;4996657;28;20225;-72
2023/10/18 15:47:27;;;;;;;5.30;4.80;;;;;;;;;;4973001;28;22654;-73
2023/10/18 15:49:53;;;;;;;4.43;4.13;;;;;;;;;;4988148;28;20229;-73
2023/10/18 15:52:20;;;;;;;6.17;4.77;;;;;;;;;;4996660;28;20213;-73
2023/10/18 15:54:51;;;;;;;4.50;4.20;;;;;;;;;;4991497;28;20221;-72
2023/10/18 15:57:17;;;;;;;5.20;4.70;;;;;;;;;;4990354;28;20713;-72
2023/10/18 15:59:46;;;;;;;5.07;4.60;;;;;;;;;;4988278;28;20224;-72
2023/10/18 16:02:14;;;;;;;5.13;4.73;;;;;;;;;;4976912;28;20226;-74
2023/10/18 16:04:40;;;;;;;5.00;4.57;;;;;;;;;;4996993;28;20287;-73
2023/10/18 16:07:08;;;;;;;5.73;4.87;;;;;;;;;;5009769;28;20259;-73
2023/10/18 16:09:34;;;;;;;5.13;4.73;;;;;;;;;;5000840;28;20215;-73
2023/10/18 16:11:59;;;;;;;5.43;4.93;;;;;;;;;;4996638;28;20217;-72
2023/10/18 16:14:29;;;;;;;5.70;5.10;;;;;;;;;;5005164;28;20254;-72
2023/10/18 16:17:00;;;;;;;6.30;5.70;;;;;;;;;;4996577;28;20742;-73
2023/10/18 16:19:28;;;;;;;4.83;4.43;;;;;;;;;;5014475;28;20216;-73